Time;durP1;ratioP1;P1;durP2;ratioP2;P2;SDS_P1;SDS_P2;PMS_P1;PMS_P2;Temp;Humidity;BMP_temperature;BMP_pressure;BME280_temperature;BME280_humidity;BME280_pressure;Samples;Min_cycle;Max_cycle;Signal;HPM_P1;HPM_P2
2024/03/23 06:01:34;;;;;;;9.88;5.90;;;10.90;98.70;;;;;;4360241;23;19929;-76
2024/03/23 06:03:35;;;;;;;9.90;6.10;;;10.80;99.40;;;;;;4082707;29;20059;-78
2024/03/23 06:05:37;;;;;;;11.20;5.30;;;10.80;99.50;;;;;;4086587;29;20050;-79
2024/03/23 06:07:38;;;;;;;9.10;5.40;;;10.80;99.50;;;;;;4086140;29;20095;-79
2024/03/23 06:09:40;;;;;;;9.20;4.78;;;10.70;99.30;;;;;;4086372;29;20086;-76
2024/03/23 06:11:41;;;;;;;9.27;5.40;;;10.50;99.80;;;;;;4085826;29;20123;-77
2024/03/23 06:13:43;;;;;;;9.82;4.93;;;10.60;99.60;;;;;;4085900;29;20487;-77
2024/03/23 06:15:45;;;;;;;8.88;5.45;;;10.50;98.80;;;;;;4086742;29;20048;-80
2024/03/23 06:17:48;;;;;;;10.52;5.32;;;10.50;99.30;;;;;;4085774;29;20134;-78
2024/03/23 06:19:49;;;;;;;10.00;5.40;;;10.50;98.80;;;;;;4085143;29;20110;-80
2024/03/23 06:21:51;;;;;;;9.55;5.63;;;10.40;98.40;;;;;;4087853;29;20047;-80
2024/03/23 06:23:52;;;;;;;8.30;5.10;;;10.30;98.60;;;;;;4086337;29;20044;-79
2024/03/23 06:25:54;;;;;;;8.35;5.38;;;10.30;97.80;;;;;;4086100;29;20397;-79
2024/03/23 06:27:55;;;;;;;9.23;5.10;;;10.30;98.20;;;;;;4086392;29;20052;-78
2024/03/23 06:29:57;;;;;;;8.52;5.10;;;10.20;98.30;;;;;;4085634;29;20059;-77
2024/03/23 06:31:58;;;;;;;8.50;4.93;;;10.20;97.80;;;;;;4086529;29;20118;-80
2024/03/23 06:34:02;;;;;;;8.70;5.40;;;10.30;98.00;;;;;;4084746;29;20048;-78
2024/03/23 06:36:04;;;;;;;8.98;5.70;;;10.30;98.20;;;;;;4085384;29;20482;-79
2024/03/23 06:38:06;;;;;;;8.57;4.75;;;10.30;98.10;;;;;;4085927;29;20396;-79
2024/03/23 06:40:09;;;;;;;6.97;4.32;;;10.20;97.40;;;;;;4101186;29;20107;-76
2024/03/23 06:42:11;;;;;;;8.73;4.78;;;10.20;97.60;;;;;;4101423;29;20078;-79
2024/03/23 06:44:12;;;;;;;8.23;5.20;;;10.20;97.80;;;;;;4093298;29;20048;-79
2024/03/23 06:46:14;;;;;;;7.60;4.55;;;10.20;97.90;;;;;;4095374;29;20448;-78
2024/03/23 06:48:15;;;;;;;6.45;3.67;;;10.20;97.50;;;;;;4097234;29;20051;-79
2024/03/23 06:50:18;;;;;;;5.68;3.08;;;10.20;96.50;;;;;;4089591;29;20071;-79
2024/03/23 06:52:19;;;;;;;5.72;3.08;;;10.10;96.20;;;;;;4085268;29;20051;-78
2024/03/23 06:54:21;;;;;;;4.15;2.35;;;10.10;96.60;;;;;;4085031;29;20453;-79
2024/03/23 06:56:22;;;;;;;5.03;2.30;;;10.10;95.20;;;;;;4095793;29;20113;-79
2024/03/23 06:58:26;;;;;;;3.95;2.17;;;10.00;95.60;;;;;;4093507;29;20471;-77
2024/03/23 07:00:26;;;;;;;3.95;1.80;;;9.90;95.30;;;;;;4083652;29;20458;-75
2024/03/23 07:02:28;;;;;;;3.15;1.63;;;9.90;95.00;;;;;;4083940;29;20051;-76
2024/03/23 07:04:29;;;;;;;3.63;1.60;;;9.90;95.20;;;;;;4083046;29;20075;-77
2024/03/23 07:06:32;;;;;;;3.88;1.60;;;9.90;94.80;;;;;;4082148;29;20040;-77
2024/03/23 07:08:33;;;;;;;3.88;1.60;;;9.90;95.10;;;;;;4083584;29;20098;-77
2024/03/23 07:10:36;;;;;;;4.28;1.65;;;9.80;94.90;;;;;;4083160;29;20095;-76
2024/03/23 07:12:37;;;;;;;3.08;1.40;;;9.90;94.80;;;;;;4084048;28;20413;-77
2024/03/23 07:14:38;;;;;;;2.78;1.08;;;9.80;94.80;;;;;;4079970;29;20075;-78
2024/03/23 07:16:39;;;;;;;3.10;1.30;;;9.80;94.20;;;;;;4086126;29;20051;-77
2024/03/23 07:18:41;;;;;;;2.60;1.15;;;9.80;93.90;;;;;;4085476;29;20106;-76
2024/03/23 07:20:42;;;;;;;2.47;1.08;;;9.80;94.20;;;;;;4084643;29;20048;-77
2024/03/23 07:22:47;;;;;;;2.53;1.00;;;9.80;94.40;;;;;;4090480;29;20480;-76
2024/03/23 07:24:48;;;;;;;1.65;0.73;;;9.70;93.50;;;;;;4096353;29;20200;-76
2024/03/23 07:26:51;;;;;;;2.40;0.98;;;9.70;93.30;;;;;;4091921;29;20541;-75
2024/03/23 07:28:52;;;;;;;1.75;0.70;;;9.70;93.20;;;;;;4086755;29;20454;-76
2024/03/23 07:31:05;;;;;;;2.35;0.90;;;9.70;93.50;;;;;;4091043;29;20444;-75
2024/03/23 07:33:06;;;;;;;1.58;0.65;;;9.70;92.90;;;;;;4091437;29;20043;-77
2024/03/23 07:35:08;;;;;;;1.92;0.68;;;9.60;93.10;;;;;;4086869;29;20193;-76
2024/03/23 07:37:09;;;;;;;1.75;0.50;;;9.60;92.70;;;;;;4082952;29;20118;-76
2024/03/23 07:39:12;;;;;;;1.83;0.63;;;9.60;92.80;;;;;;4082043;29;20052;-77
2024/03/23 07:41:17;;;;;;;1.70;0.40;;;9.50;93.00;;;;;;4075654;29;20122;-77
2024/03/23 07:43:19;;;;;;;2.72;0.60;;;9.60;93.10;;;;;;4081307;29;20059;-79
2024/03/23 07:45:20;;;;;;;2.50;0.50;;;9.70;92.80;;;;;;4088932;29;20576;-78
2024/03/23 07:47:22;;;;;;;1.55;0.60;;;9.60;92.80;;;;;;4086800;29;20051;-77
2024/03/23 07:49:23;;;;;;;0.98;0.40;;;9.60;92.60;;;;;;4085850;29;20553;-75
2024/03/23 07:51:26;;;;;;;0.60;0.30;;;9.60;92.80;;;;;;4083335;29;20056;-75
2024/03/23 07:53:27;;;;;;;0.57;0.30;;;9.60;92.70;;;;;;4083088;29;20080;-76
2024/03/23 07:55:30;;;;;;;0.95;0.40;;;9.50;92.40;;;;;;4077635;29;20055;-75
2024/03/23 07:57:31;;;;;;;0.40;0.20;;;9.50;92.50;;;;;;4083158;29;20441;-74
2024/03/23 07:59:33;;;;;;;0.10;0.10;;;9.50;91.40;;;;;;4086120;29;20055;-74
2024/03/23 08:01:34;;;;;;;0.75;0.22;;;9.50;91.80;;;;;;4076239;29;20091;-76
2024/03/23 08:03:37;;;;;;;0.50;0.20;;;9.50;91.60;;;;;;4083092;29;20043;-78
2024/03/23 08:05:38;;;;;;;0.75;0.30;;;9.50;91.90;;;;;;4083630;29;20503;-78
2024/03/23 08:07:39;;;;;;;0.22;0.10;;;9.50;91.90;;;;;;4083400;29;20146;-79
2024/03/23 08:09:40;;;;;;;0.10;0.10;;;9.50;92.30;;;;;;4076444;29;20052;-76
2024/03/23 08:11:45;;;;;;;1.10;0.30;;;9.60;91.90;;;;;;4088138;29;20083;-75
2024/03/23 08:13:46;;;;;;;0.60;0.20;;;9.60;91.60;;;;;;4081901;29;20141;-78
2024/03/23 08:15:48;;;;;;;0.52;0.20;;;9.50;91.90;;;;;;4081611;29;20052;-78
2024/03/23 08:17:50;;;;;;;0.73;0.20;;;9.50;92.10;;;;;;4082142;29;20076;-77
2024/03/23 08:19:52;;;;;;;0.43;0.20;;;9.50;92.30;;;;;;4082289;29;20431;-77
2024/03/23 08:21:54;;;;;;;1.70;0.38;;;9.40;91.80;;;;;;4082501;29;20074;-76
2024/03/23 08:23:56;;;;;;;0.60;0.30;;;9.40;92.10;;;;;;4082207;29;20048;-76
2024/03/23 08:25:58;;;;;;;0.28;0.10;;;9.40;92.00;;;;;;4085091;29;20044;-77
2024/03/23 08:28:01;;;;;;;0.73;0.10;;;9.40;92.00;;;;;;4085931;29;20165;-79
2024/03/23 08:30:03;;;;;;;0.17;0.10;;;9.20;92.10;;;;;;4086221;29;20111;-77
2024/03/23 08:32:05;;;;;;;0.75;0.20;;;9.20;92.50;;;;;;4087104;29;20059;-75
2024/03/23 08:34:06;;;;;;;0.80;0.32;;;9.30;92.50;;;;;;4087412;29;20465;-79
2024/03/23 08:36:12;;;;;;;1.05;0.32;;;9.20;91.80;;;;;;4086347;29;20048;-79
2024/03/23 08:38:12;;;;;;;0.35;0.17;;;9.30;91.80;;;;;;4087504;29;20052;-78
2024/03/23 08:40:14;;;;;;;1.10;0.40;;;9.50;91.90;;;;;;4086704;29;20098;-79
2024/03/23 08:42:15;;;;;;;5.05;0.70;;;9.50;92.00;;;;;;4086396;29;20044;-79
2024/03/23 08:44:18;;;;;;;2.20;0.60;;;9.50;91.00;;;;;;4084949;29;20056;-80
2024/03/23 08:46:19;;;;;;;0.88;0.40;;;9.40;91.10;;;;;;4087361;29;20171;-80
2024/03/23 08:48:20;;;;;;;1.20;0.52;;;9.40;91.00;;;;;;4091891;29;20442;-80
2024/03/23 08:50:22;;;;;;;1.23;0.40;;;9.30;91.00;;;;;;4083475;29;20043;-80
2024/03/23 08:52:25;;;;;;;1.38;0.55;;;9.20;90.80;;;;;;4086801;29;20087;-79
2024/03/23 08:54:29;;;;;;;1.98;0.60;;;9.20;90.90;;;;;;4086208;29;20073;-78
2024/03/23 08:56:29;;;;;;;2.25;0.60;;;9.10;90.70;;;;;;4085940;29;20442;-78
2024/03/23 08:58:33;;;;;;;1.45;0.65;;;9.20;90.40;;;;;;4087123;29;20054;-77
2024/03/23 09:00:35;;;;;;;2.15;0.60;;;9.20;90.50;;;;;;4083976;29;20110;-78
2024/03/23 09:02:37;;;;;;;2.67;0.70;;;9.30;90.00;;;;;;4091159;29;20406;-78
2024/03/23 09:04:37;;;;;;;3.15;1.00;;;9.30;89.70;;;;;;4085386;29;20077;-78
2024/03/23 09:06:39;;;;;;;2.95;0.88;;;9.30;86.90;;;;;;4085079;29;20470;-78
2024/03/23 09:08:41;;;;;;;2.38;0.88;;;9.20;85.50;;;;;;4083857;29;20043;-76
2024/03/23 09:10:43;;;;;;;2.95;1.15;;;9.20;83.10;;;;;;4083187;29;20048;-78
2024/03/23 09:12:44;;;;;;;3.55;1.00;;;9.20;83.90;;;;;;4086340;29;20107;-79
2024/03/23 09:14:46;;;;;;;2.72;1.00;;;9.30;82.60;;;;;;4084895;29;20044;-77
2024/03/23 09:16:49;;;;;;;3.53;1.00;;;9.30;82.40;;;;;;4085225;29;20466;-76
2024/03/23 09:18:53;;;;;;;2.10;0.82;;;9.40;81.90;;;;;;4084703;29;20086;-76
2024/03/23 09:20:54;;;;;;;5.60;1.13;;;9.50;80.90;;;;;;4084632;29;20120;-79
2024/03/23 09:22:56;;;;;;;5.22;1.30;;;9.40;78.50;;;;;;4082454;29;20063;-78
2024/03/23 09:24:56;;;;;;;4.72;1.30;;;9.60;79.40;;;;;;4085320;29;20040;-78
2024/03/23 09:26:58;;;;;;;3.78;1.17;;;9.60;80.20;;;;;;4085447;29;20040;-78
2024/03/23 09:28:59;;;;;;;3.65;1.25;;;9.60;78.40;;;;;;4087191;29;20649;-79
2024/03/23 09:31:03;;;;;;;3.90;1.38;;;9.50;79.80;;;;;;4083491;29;20087;-75
2024/03/23 09:33:06;;;;;;;3.80;1.48;;;9.40;78.10;;;;;;4084621;29;20099;-78
2024/03/23 09:35:08;;;;;;;4.38;1.83;;;9.20;78.40;;;;;;4083626;29;20130;-77
2024/03/23 09:37:09;;;;;;;5.03;1.70;;;9.10;79.70;;;;;;4083161;29;20454;-76
2024/03/23 09:39:11;;;;;;;5.47;1.70;;;9.10;80.50;;;;;;4083051;29;20095;-76
2024/03/23 09:41:14;;;;;;;4.80;1.52;;;9.10;80.80;;;;;;4082410;29;20043;-77
2024/03/23 09:43:16;;;;;;;5.55;2.05;;;9.10;81.20;;;;;;4084138;29;20047;-78
2024/03/23 09:45:21;;;;;;;5.85;1.70;;;9.10;81.00;;;;;;4092064;29;20114;-76
2024/03/23 09:47:23;;;;;;;5.75;2.10;;;9.20;80.50;;;;;;4082559;29;20143;-76
2024/03/23 09:49:25;;;;;;;7.25;2.05;;;9.20;82.70;;;;;;4084022;29;20091;-78
2024/03/23 09:51:27;;;;;;;5.38;1.98;;;9.20;82.70;;;;;;4084862;29;20477;-79
2024/03/23 09:53:28;;;;;;;5.80;1.85;;;9.20;82.30;;;;;;4083647;29;20047;-79
2024/03/23 09:55:30;;;;;;;5.35;2.30;;;9.40;82.40;;;;;;4081739;29;20052;-80
2024/03/23 09:57:31;;;;;;;8.52;2.33;;;9.40;81.50;;;;;;4082968;29;20047;-80
2024/03/23 09:59:35;;;;;;;5.97;2.45;;;9.30;78.90;;;;;;4088710;29;20052;-79
2024/03/23 10:01:36;;;;;;;6.32;2.53;;;9.40;78.70;;;;;;4091016;29;20052;-79
2024/03/23 10:03:44;;;;;;;5.93;2.40;;;9.60;78.80;;;;;;4084949;29;20477;-81
2024/03/23 10:05:47;;;;;;;8.52;2.40;;;9.70;77.70;;;;;;4092737;29;20103;-78
2024/03/23 10:07:50;;;;;;;7.53;2.60;;;9.50;75.80;;;;;;4097078;29;20047;-77
2024/03/23 10:09:51;;;;;;;7.57;2.60;;;9.40;75.50;;;;;;4090468;29;20058;-81
2024/03/23 10:11:53;;;;;;;7.68;2.65;;;9.30;77.50;;;;;;4090107;29;20039;-79
2024/03/23 10:13:56;;;;;;;7.28;2.65;;;9.30;78.20;;;;;;4090009;29;20043;-78
2024/03/23 10:16:00;;;;;;;7.10;2.55;;;9.40;77.70;;;;;;4084488;29;20458;-79
2024/03/23 10:18:18;;;;;;;9.70;2.50;;;9.40;76.30;;;;;;4090763;29;20454;-82
2024/03/23 10:20:22;;;;;;;9.85;2.70;;;9.50;78.20;;;;;;4086661;29;20519;-79
2024/03/23 10:22:24;;;;;;;7.50;2.50;;;9.70;78.80;;;;;;4085625;29;20107;-81
2024/03/23 10:24:26;;;;;;;10.07;2.60;;;9.60;77.70;;;;;;4077395;29;20139;-80
2024/03/23 10:26:27;;;;;;;9.52;2.70;;;9.50;77.60;;;;;;4088070;29;20110;-78
2024/03/23 10:28:29;;;;;;;5.40;2.33;;;9.50;78.20;;;;;;4080635;29;20485;-82
2024/03/23 10:30:30;;;;;;;7.78;2.35;;;9.40;77.70;;;;;;4084742;29;20126;-80
2024/03/23 10:32:32;;;;;;;7.05;2.45;;;9.30;76.80;;;;;;4084601;29;20047;-79
2024/03/23 10:34:33;;;;;;;7.45;2.53;;;9.30;75.20;;;;;;4083051;29;20098;-80
2024/03/23 10:36:40;;;;;;;6.63;2.75;;;9.40;73.10;;;;;;4085726;29;20051;-79
2024/03/23 10:38:44;;;;;;;7.82;2.20;;;9.50;71.70;;;;;;4085284;29;20107;-82
2024/03/23 10:40:49;;;;;;;6.60;2.63;;;9.60;75.00;;;;;;4078157;29;20044;-84
2024/03/23 10:42:52;;;;;;;6.72;2.47;;;9.60;70.00;;;;;;4086409;29;20043;-83
2024/03/23 10:44:56;;;;;;;6.38;2.50;;;9.70;70.50;;;;;;4087684;29;20090;-80
2024/03/23 10:47:01;;;;;;;6.13;2.30;;;9.80;69.40;;;;;;4086138;29;20044;-80
2024/03/23 10:49:03;;;;;;;9.88;3.00;;;9.70;67.50;;;;;;4083210;29;20044;-84
2024/03/23 10:51:06;;;;;;;8.38;2.83;;;9.60;67.90;;;;;;4081853;29;20050;-84
2024/03/23 10:53:08;;;;;;;7.32;2.60;;;9.70;68.50;;;;;;4077431;29;20059;-83
2024/03/23 10:55:11;;;;;;;6.60;2.65;;;9.80;68.80;;;;;;4081811;29;20489;-81
2024/03/23 10:57:18;;;;;;;9.07;3.00;;;10.10;68.40;;;;;;4084760;29;20048;-82
2024/03/23 10:59:21;;;;;;;7.55;3.08;;;10.00;66.00;;;;;;4086364;29;20081;-83
2024/03/23 11:01:22;;;;;;;10.05;2.10;;;9.90;64.20;;;;;;4078663;29;20060;-83
2024/03/23 11:03:34;;;;;;;7.10;2.80;;;9.80;65.20;;;;;;4090675;29;20083;-84
2024/03/23 11:05:36;;;;;;;10.85;2.85;;;9.80;68.20;;;;;;4084909;29;20103;-82
2024/03/23 11:07:37;;;;;;;7.75;2.75;;;9.70;68.70;;;;;;4078944;29;20494;-82
2024/03/23 11:09:45;;;;;;;7.50;2.58;;;9.70;68.80;;;;;;4075021;29;20079;-81
2024/03/23 11:11:47;;;;;;;4.70;1.42;;;9.30;74.60;;;;;;4084698;29;20478;-81
2024/03/23 11:13:50;;;;;;;4.68;1.40;;;8.00;91.00;;;;;;4087419;29;20052;-81
2024/03/23 11:15:51;;;;;;;4.90;1.17;;;7.00;96.40;;;;;;4081471;29;20043;-80
2024/03/23 11:18:08;;;;;;;6.05;1.70;;;6.60;98.40;;;;;;4082845;29;20048;-78
2024/03/23 11:20:11;;;;;;;7.15;1.95;;;6.50;99.20;;;;;;4082194;29;20103;-78
2024/03/23 11:22:13;;;;;;;6.93;1.67;;;6.60;98.70;;;;;;4082667;29;20082;-80
2024/03/23 11:24:15;;;;;;;6.35;1.77;;;6.80;96.30;;;;;;4082445;29;20047;-80
2024/03/23 11:26:17;;;;;;;4.63;1.40;;;6.80;95.90;;;;;;4083061;29;20494;-80
2024/03/23 11:28:21;;;;;;;5.72;1.73;;;7.00;96.00;;;;;;4082620;29;20128;-79
2024/03/23 11:30:25;;;;;;;5.55;1.70;;;7.10;94.90;;;;;;4076842;29;20055;-80
2024/03/23 11:32:26;;;;;;;5.32;1.60;;;7.30;93.30;;;;;;4075873;29;20465;-79
2024/03/23 11:34:28;;;;;;;6.07;1.60;;;7.60;95.80;;;;;;4082327;29;20052;-79
2024/03/23 11:36:29;;;;;;;5.20;1.70;;;7.50;94.70;;;;;;4081602;29;20182;-79
2024/03/23 11:38:37;;;;;;;3.97;1.38;;;7.70;93.80;;;;;;4088375;29;20048;-79
2024/03/23 11:40:40;;;;;;;4.82;1.52;;;7.80;94.20;;;;;;4085151;29;20044;-79
2024/03/23 11:42:42;;;;;;;5.00;1.65;;;7.70;93.10;;;;;;4083380;29;20051;-81
2024/03/23 11:44:44;;;;;;;5.15;1.73;;;7.70;93.20;;;;;;4087347;29;20098;-80
2024/03/23 11:46:46;;;;;;;5.47;1.40;;;7.60;93.70;;;;;;4092033;29;20051;-80
2024/03/23 11:48:50;;;;;;;4.05;1.40;;;7.60;92.50;;;;;;4087932;29;20095;-80
2024/03/23 11:50:58;;;;;;;6.40;1.85;;;7.60;91.30;;;;;;4090758;29;20390;-77
2024/03/23 11:53:18;;;;;;;7.40;1.98;;;7.60;91.40;;;;;;4089861;29;20083;-79
2024/03/23 11:55:21;;;;;;;6.68;1.92;;;7.60;91.70;;;;;;4084044;29;20450;-76
2024/03/23 11:57:22;;;;;;;5.47;1.55;;;7.60;92.30;;;;;;4086413;29;20048;-80
2024/03/23 11:59:34;;;;;;;5.65;1.67;;;7.50;92.00;;;;;;4092770;29;20103;-80
2024/03/23 12:01:37;;;;;;;6.22;1.38;;;7.50;91.30;;;;;;4090596;29;20417;-76
2024/03/23 12:03:39;;;;;;;5.40;1.60;;;7.50;91.90;;;;;;4083386;29;20497;-80
2024/03/23 12:05:40;;;;;;;6.07;1.67;;;7.60;91.60;;;;;;4089026;29;20052;-80
2024/03/23 12:07:42;;;;;;;4.65;1.55;;;7.70;91.70;;;;;;4084252;29;20115;-80
2024/03/23 12:09:43;;;;;;;5.22;1.77;;;7.80;91.70;;;;;;4086661;29;20542;-80
2024/03/23 12:11:45;;;;;;;6.32;1.70;;;7.90;90.00;;;;;;4088068;29;20051;-79
2024/03/23 12:13:47;;;;;;;6.72;1.52;;;7.90;88.40;;;;;;4089702;29;20060;-79
2024/03/23 12:15:51;;;;;;;4.93;1.50;;;7.90;85.90;;;;;;4088282;29;20048;-79
2024/03/23 12:18:07;;;;;;;6.70;1.83;;;7.90;85.90;;;;;;4088284;29;20044;-79
2024/03/23 12:20:09;;;;;;;;;;;8.00;88.90;;;;;;4080686;29;20044;-80
2024/03/23 12:22:10;;;;;;;6.03;1.40;;;8.20;88.50;;;;;;4091572;29;19981;-78
2024/03/23 12:24:12;;;;;;;5.80;1.58;;;8.30;85.80;;;;;;4080735;29;20446;-80
2024/03/23 12:26:13;;;;;;;7.75;1.40;;;8.40;85.80;;;;;;4079670;29;20478;-81
2024/03/23 12:28:15;;;;;;;8.20;1.60;;;8.50;87.00;;;;;;4079290;29;20051;-80
2024/03/23 12:30:16;;;;;;;6.03;1.77;;;8.60;85.80;;;;;;4081280;29;20056;-79
2024/03/23 12:32:18;;;;;;;7.60;1.77;;;8.60;82.60;;;;;;4081095;29;20073;-79
2024/03/23 12:34:20;;;;;;;6.78;1.83;;;8.60;81.20;;;;;;4081432;29;20130;-81
2024/03/23 12:36:22;;;;;;;5.78;1.60;;;8.50;78.20;;;;;;4082049;29;20127;-79
2024/03/23 12:38:23;;;;;;;8.15;1.65;;;8.50;79.00;;;;;;4082084;29;20083;-79
2024/03/23 12:40:26;;;;;;;6.93;1.70;;;8.40;78.80;;;;;;4086325;29;20052;-78
2024/03/23 12:42:27;;;;;;;7.45;2.00;;;8.40;78.30;;;;;;4090428;29;20075;-80
2024/03/23 12:44:29;;;;;;;9.82;2.10;;;8.30;77.60;;;;;;4088538;29;20387;-78
2024/03/23 12:46:30;;;;;;;10.50;1.63;;;8.20;78.50;;;;;;4086942;29;20048;-80
2024/03/23 12:48:32;;;;;;;10.82;2.30;;;8.20;79.50;;;;;;4091234;28;20044;-77
2024/03/23 12:50:34;;;;;;;8.50;2.15;;;8.20;80.80;;;;;;4085715;29;20131;-81
2024/03/23 12:52:36;;;;;;;6.97;1.95;;;8.40;81.30;;;;;;4082632;29;20119;-81
2024/03/23 12:54:37;;;;;;;9.55;2.22;;;8.50;81.40;;;;;;4074396;29;20111;-79
2024/03/23 12:56:38;;;;;;;6.65;2.40;;;8.80;81.50;;;;;;4081865;29;20048;-80
2024/03/23 12:58:40;;;;;;;7.25;2.20;;;9.10;82.90;;;;;;4081499;29;20076;-80
2024/03/23 13:00:40;;;;;;;8.30;2.47;;;9.30;81.20;;;;;;4080487;29;20082;-79
2024/03/23 13:02:43;;;;;;;6.90;1.98;;;9.60;80.90;;;;;;4082472;29;20402;-78
2024/03/23 13:04:43;;;;;;;7.07;2.47;;;9.70;87.50;;;;;;4082483;29;20055;-77
2024/03/23 13:06:47;;;;;;;7.07;2.17;;;9.70;81.40;;;;;;4081943;29;20541;-78
2024/03/23 13:08:49;;;;;;;8.15;2.00;;;9.40;80.10;;;;;;4081935;29;20441;-81
2024/03/23 13:10:52;;;;;;;6.07;2.10;;;9.20;81.20;;;;;;4085744;29;20055;-87
2024/03/23 13:12:53;;;;;;;5.68;2.03;;;9.30;81.30;;;;;;4085805;29;20541;-78
2024/03/23 13:14:55;;;;;;;8.10;2.05;;;9.40;81.50;;;;;;4082654;29;20060;-79
2024/03/23 13:16:56;;;;;;;7.10;2.08;;;9.60;81.90;;;;;;4081094;29;20051;-77
2024/03/23 13:18:58;;;;;;;6.03;2.00;;;9.70;81.30;;;;;;4086661;29;20047;-82
2024/03/23 13:20:59;;;;;;;7.53;2.28;;;9.60;80.60;;;;;;4087148;29;20150;-80
2024/03/23 13:23:02;;;;;;;6.95;2.10;;;9.20;80.70;;;;;;4080103;29;20061;-81
2024/03/23 13:25:04;;;;;;;10.63;2.70;;;8.90;81.60;;;;;;4085974;29;20043;-82
2024/03/23 13:27:07;;;;;;;6.53;1.88;;;8.90;81.30;;;;;;4077097;29;20051;-81
2024/03/23 13:29:09;;;;;;;8.63;2.13;;;8.90;82.10;;;;;;4082446;29;20131;-83
2024/03/23 13:31:10;;;;;;;6.82;2.10;;;8.80;81.80;;;;;;4084411;29;20102;-80
2024/03/23 13:33:11;;;;;;;6.22;2.10;;;8.70;82.50;;;;;;4084630;29;20130;-80
2024/03/23 13:35:13;;;;;;;6.93;1.98;;;8.30;85.40;;;;;;4084608;29;20047;-79
2024/03/23 13:37:14;;;;;;;8.50;2.05;;;8.20;88.40;;;;;;4083851;29;20410;-79
2024/03/23 13:39:17;;;;;;;7.13;2.38;;;8.30;90.00;;;;;;4083702;29;20103;-80
2024/03/23 13:41:18;;;;;;;5.22;1.90;;;8.20;90.90;;;;;;4084382;29;20059;-79
2024/03/23 13:43:20;;;;;;;6.60;1.90;;;8.10;90.00;;;;;;4084862;29;20047;-80
2024/03/23 13:45:21;;;;;;;6.22;1.98;;;7.90;90.90;;;;;;4084363;29;20490;-80
2024/03/23 13:47:23;;;;;;;3.90;1.60;;;8.00;91.30;;;;;;4084343;29;20052;-80
2024/03/23 13:49:28;;;;;;;4.32;1.20;;;8.30;90.40;;;;;;4084542;29;20488;-78
2024/03/23 13:51:30;;;;;;;4.55;1.10;;;8.60;84.70;;;;;;4084042;29;20048;-80
2024/03/23 13:53:32;;;;;;;3.40;0.95;;;8.80;81.80;;;;;;4084427;29;20095;-80
2024/03/23 13:55:35;;;;;;;3.42;1.02;;;9.30;82.90;;;;;;4084413;29;20514;-78
2024/03/23 13:57:36;;;;;;;3.55;1.00;;;9.90;79.40;;;;;;4083096;29;20482;-80
2024/03/23 13:59:38;;;;;;;4.10;1.00;;;10.20;76.70;;;;;;4080481;29;20099;-79
2024/03/23 14:01:40;;;;;;;3.78;1.10;;;10.70;74.10;;;;;;4077622;29;20419;-81
2024/03/23 14:03:42;;;;;;;3.42;1.20;;;11.40;71.70;;;;;;4083915;29;20548;-80
2024/03/23 14:05:43;;;;;;;4.47;1.15;;;12.20;66.80;;;;;;4084650;29;20478;-80
2024/03/23 14:07:45;;;;;;;4.10;1.00;;;12.30;61.80;;;;;;4084125;29;20052;-80
2024/03/23 14:09:46;;;;;;;6.40;1.23;;;11.90;64.70;;;;;;4078143;29;20386;-80
2024/03/23 14:11:49;;;;;;;5.55;1.25;;;14.90;60.50;;;;;;4083109;29;20107;-80
2024/03/23 14:13:50;;;;;;;4.68;0.90;;;17.00;53.50;;;;;;4085555;29;20087;-79
2024/03/23 14:15:53;;;;;;;5.35;1.30;;;14.90;54.50;;;;;;4086288;29;20470;-79
2024/03/23 14:17:55;;;;;;;8.75;1.60;;;13.20;58.50;;;;;;4081911;29;20043;-79
2024/03/23 14:19:58;;;;;;;4.78;1.45;;;12.20;60.30;;;;;;4086888;29;20142;-78
2024/03/23 14:22:00;;;;;;;4.18;1.27;;;11.10;64.00;;;;;;4084186;29;20123;-79
2024/03/23 14:24:01;;;;;;;4.38;1.17;;;10.50;66.90;;;;;;4083716;29;20044;-77
2024/03/23 14:26:04;;;;;;;4.82;1.45;;;10.20;70.10;;;;;;4084433;29;20048;-80
2024/03/23 14:28:13;;;;;;;4.85;0.90;;;9.70;69.80;;;;;;4084089;29;20048;-80
2024/03/23 14:30:15;;;;;;;2.97;1.10;;;9.50;69.80;;;;;;4082441;29;20123;-80
2024/03/23 14:32:16;;;;;;;4.45;1.05;;;9.50;70.20;;;;;;4083508;29;20052;-80
2024/03/23 14:34:18;;;;;;;6.72;2.63;;;9.60;69.10;;;;;;4083559;29;20521;-79
2024/03/23 14:36:19;;;;;;;5.68;2.30;;;13.10;61.40;;;;;;4082018;29;20481;-80
2024/03/23 14:38:21;;;;;;;4.55;1.40;;;15.90;53.70;;;;;;4081809;29;20056;-79
2024/03/23 14:40:21;;;;;;;5.15;1.73;;;16.70;51.00;;;;;;4081569;29;20107;-80
2024/03/23 14:42:24;;;;;;;6.07;2.13;;;18.70;48.50;;;;;;4081398;29;20052;-80
2024/03/23 14:44:26;;;;;;;4.63;1.90;;;18.90;45.90;;;;;;4081605;29;20134;-78
2024/03/23 14:46:28;;;;;;;4.25;1.35;;;19.60;44.40;;;;;;4081544;29;20149;-78
2024/03/23 14:48:29;;;;;;;5.55;1.98;;;18.00;45.10;;;;;;4080585;29;20626;-79
2024/03/23 14:50:30;;;;;;;10.70;9.88;;;17.40;45.30;;;;;;4080830;29;20051;-78
2024/03/23 14:52:31;;;;;;;10.68;9.77;;;19.40;44.50;;;;;;4076510;29;20052;-80
2024/03/23 14:54:34;;;;;;;20.58;19.33;;;19.70;41.60;;;;;;4077832;29;20119;-78
2024/03/23 14:56:35;;;;;;;8.75;8.05;;;18.50;42.70;;;;;;4077572;29;20103;-84
2024/03/23 14:58:37;;;;;;;4.35;1.10;;;19.20;42.80;;;;;;4072670;29;20052;-86
2024/03/23 15:00:39;;;;;;;4.65;1.20;;;16.70;43.70;;;;;;4099379;29;20110;-85
2024/03/23 15:02:41;;;;;;;4.50;1.20;;;14.90;48.20;;;;;;4075238;29;20065;-85
2024/03/23 15:04:42;;;;;;;4.53;1.20;;;14.00;51.80;;;;;;4076904;29;20498;-83
2024/03/23 15:06:46;;;;;;;4.18;1.10;;;12.60;53.50;;;;;;4093451;29;20425;-85
2024/03/23 15:08:47;;;;;;;3.88;1.25;;;12.40;56.00;;;;;;4086588;29;20047;-85
2024/03/23 15:10:49;;;;;;;4.53;1.20;;;11.50;57.80;;;;;;4087045;29;20055;-84
2024/03/23 15:12:50;;;;;;;3.90;1.02;;;10.70;59.20;;;;;;4084197;29;20107;-85
2024/03/23 15:14:52;;;;;;;5.30;1.30;;;10.50;61.60;;;;;;4095251;29;20047;-85
2024/03/23 15:16:54;;;;;;;4.53;1.08;;;9.30;71.90;;;;;;4077010;29;20055;-79
2024/03/23 15:18:56;;;;;;;3.67;0.90;;;8.80;83.60;;;;;;4074350;29;20055;-78
2024/03/23 15:21:01;;;;;;;3.40;1.00;;;8.60;87.80;;;;;;4079591;29;20051;-78
2024/03/23 15:23:03;;;;;;;3.63;1.10;;;8.80;90.00;;;;;;4080279;29;20055;-78
2024/03/23 15:25:05;;;;;;;5.78;3.80;;;8.70;90.00;;;;;;4080849;29;20796;-79
2024/03/23 15:27:08;;;;;;;2.17;0.90;;;9.60;84.70;;;;;;4075293;29;20051;-79
2024/03/23 15:29:16;;;;;;;2.97;0.75;;;10.90;82.10;;;;;;4080009;29;20079;-80
2024/03/23 15:31:17;;;;;;;3.10;0.75;;;12.20;76.20;;;;;;4081092;29;20098;-80
2024/03/23 15:33:20;;;;;;;4.35;0.68;;;13.20;69.10;;;;;;4080360;29;20055;-78
2024/03/23 15:35:23;;;;;;;3.80;0.77;;;13.70;69.70;;;;;;4080581;29;20458;-79
2024/03/23 15:37:25;;;;;;;3.78;1.10;;;14.10;66.00;;;;;;4080903;29;20162;-78
2024/03/23 15:39:26;;;;;;;3.10;1.10;;;14.10;64.10;;;;;;4080093;29;20047;-80
2024/03/23 15:41:27;;;;;;;3.05;1.00;;;14.20;64.10;;;;;;4080462;29;20103;-79
2024/03/23 15:43:28;;;;;;;3.00;0.80;;;14.50;63.30;;;;;;4080780;29;20044;-79
2024/03/23 15:45:30;;;;;;;3.92;1.15;;;14.70;60.30;;;;;;4080770;29;20099;-79
2024/03/23 15:47:31;;;;;;;2.45;0.80;;;14.80;61.00;;;;;;4080471;29;20391;-79
2024/03/23 15:49:34;;;;;;;2.92;0.90;;;14.30;60.70;;;;;;4080035;29;20106;-77
2024/03/23 15:51:37;;;;;;;3.35;0.90;;;14.20;60.90;;;;;;4081004;29;20465;-76
2024/03/23 15:53:38;;;;;;;2.72;0.90;;;13.50;62.50;;;;;;4078470;29;20052;-77
2024/03/23 15:55:39;;;;;;;4.22;1.30;;;13.10;62.90;;;;;;4081634;29;20106;-77
2024/03/23 15:57:41;;;;;;;3.35;0.90;;;12.60;64.90;;;;;;4080207;29;20051;-78
2024/03/23 15:59:42;;;;;;;2.40;0.85;;;12.20;66.50;;;;;;4080649;29;20058;-78
2024/03/23 16:01:45;;;;;;;3.65;0.93;;;12.50;68.20;;;;;;4080073;29;20099;-80
2024/03/23 16:03:46;;;;;;;3.08;0.90;;;13.00;65.30;;;;;;4080477;29;20102;-79
2024/03/23 16:05:52;;;;;;;7.55;2.90;;;12.70;64.20;;;;;;4080804;29;20442;-80
2024/03/23 16:07:53;;;;;;;3.78;1.10;;;12.50;66.70;;;;;;4081448;29;20043;-79
2024/03/23 16:09:56;;;;;;;4.45;1.20;;;12.10;66.40;;;;;;4079870;29;20047;-80
2024/03/23 16:11:57;;;;;;;4.68;1.35;;;11.40;68.50;;;;;;4076810;29;20665;-76
2024/03/23 16:13:59;;;;;;;3.40;1.00;;;11.00;70.60;;;;;;4079495;29;20102;-79
2024/03/23 16:16:03;;;;;;;4.95;1.17;;;10.90;71.90;;;;;;4081348;29;20470;-78
2024/03/23 16:18:06;;;;;;;4.88;1.83;;;10.20;72.30;;;;;;4082855;29;20146;-78
2024/03/23 16:20:08;;;;;;;3.75;1.05;;;10.00;74.30;;;;;;4082509;29;20051;-79
2024/03/23 16:22:12;;;;;;;3.47;1.10;;;10.00;75.80;;;;;;4080014;29;20544;-78
2024/03/23 16:24:13;;;;;;;4.75;1.48;;;9.70;75.50;;;;;;4082064;29;20051;-79
2024/03/23 16:26:16;;;;;;;4.30;1.30;;;9.60;76.70;;;;;;4082417;29;20058;-78
2024/03/23 16:28:17;;;;;;;4.40;1.45;;;9.80;78.10;;;;;;4079294;29;20476;-80
2024/03/23 16:30:20;;;;;;;3.50;1.20;;;9.80;74.30;;;;;;4079878;29;20087;-79
2024/03/23 16:32:23;;;;;;;6.30;1.48;;;9.80;75.50;;;;;;4080503;29;20078;-79
2024/03/23 16:34:27;;;;;;;6.25;2.17;;;9.80;77.40;;;;;;4080203;29;20063;-80
2024/03/23 16:36:28;;;;;;;5.05;1.00;;;9.80;76.80;;;;;;4080731;29;20095;-80
2024/03/23 16:38:34;;;;;;;4.32;0.90;;;9.40;76.30;;;;;;4080261;29;20051;-78
2024/03/23 16:40:35;;;;;;;3.78;1.10;;;9.20;77.20;;;;;;4080026;29;20405;-79
2024/03/23 16:42:37;;;;;;;3.20;0.93;;;9.10;78.60;;;;;;4080509;29;20143;-81